sensor_id;sensor_type;location;lat;lon;timestamp;pressure;altitude;pressure_sealevel;temperature;humidity
4972;BME280;2501;51.214;6.768;2023-02-19T00:01:51;101513.75;;;10.24;100.00
4972;BME280;2501;51.214;6.768;2023-02-19T00:04:22;101513.09;;;9.93;100.00
4972;BME280;2501;51.214;6.768;2023-02-19T00:06:50;101515.13;;;10.06;100.00
4972;BME280;2501;51.214;6.768;2023-02-19T00:09:19;101509.41;;;10.26;100.00
4972;BME280;2501;51.214;6.768;2023-02-19T00:11:48;101512.16;;;10.32;100.00
4972;BME280;2501;51.214;6.768;2023-02-19T00:14:18;101511.09;;;10.21;100.00
4972;BME280;2501;51.214;6.768;2023-02-19T00:16:47;101508.44;;;10.19;100.00
4972;BME280;2501;51.214;6.768;2023-02-19T00:19:17;101514.59;;;10.21;100.00
4972;BME280;2501;51.214;6.768;2023-02-19T00:21:49;101502.03;;;10.08;100.00
4972;BME280;2501;51.214;6.768;2023-02-19T00:24:18;101505.84;;;10.21;100.00
4972;BME280;2501;51.214;6.768;2023-02-19T00:26:47;101497.50;;;9.98;100.00
4972;BME280;2501;51.214;6.768;2023-02-19T00:29:18;101497.84;;;10.16;100.00
4972;BME280;2501;51.214;6.768;2023-02-19T00:31:47;101493.47;;;10.15;100.00
4972;BME280;2501;51.214;6.768;2023-02-19T00:34:16;101484.66;;;10.11;100.00
4972;BME280;2501;51.214;6.768;2023-02-19T00:36:49;101490.75;;;10.10;100.00
4972;BME280;2501;51.214;6.768;2023-02-19T00:39:18;101492.38;;;10.05;100.00
4972;BME280;2501;51.214;6.768;2023-02-19T00:41:46;101488.91;;;10.06;100.00
4972;BME280;2501;51.214;6.768;2023-02-19T00:44:15;101485.91;;;9.87;100.00
4972;BME280;2501;51.214;6.768;2023-02-19T00:46:45;101479.03;;;9.93;100.00
4972;BME280;2501;51.214;6.768;2023-02-19T00:49:16;101482.41;;;9.88;100.00
4972;BME280;2501;51.214;6.768;2023-02-19T00:51:45;101475.53;;;9.93;100.00
4972;BME280;2501;51.214;6.768;2023-02-19T00:54:17;101485.69;;;9.76;100.00
4972;BME280;2501;51.214;6.768;2023-02-19T00:56:47;101484.13;;;9.84;100.00
4972;BME280;2501;51.214;6.768;2023-02-19T00:59:15;101472.53;;;9.74;100.00
4972;BME280;2501;51.214;6.768;2023-02-19T01:01:44;101483.41;;;9.93;100.00
4972;BME280;2501;51.214;6.768;2023-02-19T01:04:14;101477.50;;;10.03;100.00
4972;BME280;2501;51.214;6.768;2023-02-19T01:06:43;101476.47;;;9.95;100.00
4972;BME280;2501;51.214;6.768;2023-02-19T01:09:13;101475.47;;;9.90;100.00
4972;BME280;2501;51.214;6.768;2023-02-19T01:11:44;101469.31;;;9.86;100.00
4972;BME280;2501;51.214;6.768;2023-02-19T01:14:12;101480.69;;;9.88;100.00
4972;BME280;2501;51.214;6.768;2023-02-19T01:16:41;101479.34;;;10.08;100.00
4972;BME280;2501;51.214;6.768;2023-02-19T01:19:09;101477.31;;;9.94;100.00
4972;BME280;2501;51.214;6.768;2023-02-19T01:21:39;101472.75;;;9.84;100.00
4972;BME280;2501;51.214;6.768;2023-02-19T01:24:07;101477.63;;;10.10;100.00
4972;BME280;2501;51.214;6.768;2023-02-19T01:26:36;101471.97;;;9.89;100.00
4972;BME280;2501;51.214;6.768;2023-02-19T01:29:07;101474.25;;;10.16;100.00
4972;BME280;2501;51.214;6.768;2023-02-19T01:31:39;101479.09;;;9.96;100.00
4972;BME280;2501;51.214;6.768;2023-02-19T01:34:09;101475.25;;;10.20;100.00
4972;BME280;2501;51.214;6.768;2023-02-19T01:36:38;101485.00;;;10.28;100.00
4972;BME280;2501;51.214;6.768;2023-02-19T01:39:07;101483.69;;;10.08;100.00
4972;BME280;2501;51.214;6.768;2023-02-19T01:41:38;101475.94;;;10.12;100.00
4972;BME280;2501;51.214;6.768;2023-02-19T01:47:08;101471.63;;;10.16;100.00
4972;BME280;2501;51.214;6.768;2023-02-19T01:49:39;101483.97;;;10.19;100.00
4972;BME280;2501;51.214;6.768;2023-02-19T01:52:15;101478.34;;;10.02;100.00
4972;BME280;2501;51.214;6.768;2023-02-19T01:54:46;101478.41;;;10.03;100.00
4972;BME280;2501;51.214;6.768;2023-02-19T01:57:19;101480.81;;;9.94;100.00
4972;BME280;2501;51.214;6.768;2023-02-19T01:59:52;101481.69;;;9.95;100.00
4972;BME280;2501;51.214;6.768;2023-02-19T02:02:24;101485.31;;;10.00;100.00
4972;BME280;2501;51.214;6.768;2023-02-19T02:04:53;101485.91;;;9.87;100.00
4972;BME280;2501;51.214;6.768;2023-02-19T02:07:22;101489.38;;;9.86;100.00
4972;BME280;2501;51.214;6.768;2023-02-19T02:10:03;101489.19;;;9.76;100.00
4972;BME280;2501;51.214;6.768;2023-02-19T02:12:44;101488.28;;;9.76;100.00
4972;BME280;2501;51.214;6.768;2023-02-19T02:15:14;101499.63;;;9.75;100.00
4972;BME280;2501;51.214;6.768;2023-02-19T02:17:50;101489.16;;;9.75;100.00
4972;BME280;2501;51.214;6.768;2023-02-19T02:20:32;101489.06;;;9.72;100.00
4972;BME280;2501;51.214;6.768;2023-02-19T02:23:08;101484.56;;;9.65;100.00
4972;BME280;2501;51.214;6.768;2023-02-19T02:26:08;101489.78;;;9.63;100.00
4972;BME280;2501;51.214;6.768;2023-02-19T02:29:01;101501.88;;;9.58;100.00
4972;BME280;2501;51.214;6.768;2023-02-19T02:31:41;101481.81;;;9.59;100.00
4972;BME280;2501;51.214;6.768;2023-02-19T02:34:14;101487.72;;;9.49;100.00
4972;BME280;2501;51.214;6.768;2023-02-19T02:36:47;101487.66;;;9.46;100.00
4972;BME280;2501;51.214;6.768;2023-02-19T02:39:19;101483.25;;;9.45;100.00
4972;BME280;2501;51.214;6.768;2023-02-19T02:41:53;101489.38;;;9.45;100.00
4972;BME280;2501;51.214;6.768;2023-02-19T02:44:34;101488.53;;;9.46;100.00
4972;BME280;2501;51.214;6.768;2023-02-19T02:47:08;101484.22;;;9.48;100.00
4972;BME280;2501;51.214;6.768;2023-02-19T02:49:57;101493.03;;;9.52;100.00
4972;BME280;2501;51.214;6.768;2023-02-19T02:52:37;101490.41;;;9.53;100.00
4972;BME280;2501;51.214;6.768;2023-02-19T02:55:21;101483.44;;;9.54;100.00
4972;BME280;2501;51.214;6.768;2023-02-19T02:57:51;101489.56;;;9.54;100.00
4972;BME280;2501;51.214;6.768;2023-02-19T03:00:19;101483.47;;;9.55;100.00
4972;BME280;2501;51.214;6.768;2023-02-19T03:02:52;101492.25;;;9.57;100.00
4972;BME280;2501;51.214;6.768;2023-02-19T03:05:22;101488.75;;;9.57;100.00
4972;BME280;2501;51.214;6.768;2023-02-19T03:08:07;101503.63;;;9.58;100.00
4972;BME280;2501;51.214;6.768;2023-02-19T03:10:39;101503.59;;;9.56;100.00
4972;BME280;2501;51.214;6.768;2023-02-19T03:13:11;101510.50;;;9.54;100.00
4972;BME280;2501;51.214;6.768;2023-02-19T03:15:59;101499.03;;;9.48;100.00
4972;BME280;2501;51.214;6.768;2023-02-19T03:18:53;101505.28;;;9.54;100.00
4972;BME280;2501;51.214;6.768;2023-02-19T03:21:48;101506.13;;;9.52;100.00
4972;BME280;2501;51.214;6.768;2023-02-19T03:24:23;101511.38;;;9.53;100.00
4972;BME280;2501;51.214;6.768;2023-02-19T03:27:06;101505.25;;;9.51;100.00
4972;BME280;2501;51.214;6.768;2023-02-19T03:29:39;101518.22;;;9.47;100.00
4972;BME280;2501;51.214;6.768;2023-02-19T03:32:11;101529.66;;;9.50;100.00
4972;BME280;2501;51.214;6.768;2023-02-19T03:34:47;101518.34;;;9.53;100.00
4972;BME280;2501;51.214;6.768;2023-02-19T03:37:23;101521.84;;;9.53;100.00
4972;BME280;2501;51.214;6.768;2023-02-19T03:39:54;101521.94;;;9.58;100.00
4972;BME280;2501;51.214;6.768;2023-02-19T03:42:31;101518.53;;;9.60;100.00
4972;BME280;2501;51.214;6.768;2023-02-19T03:45:18;101528.16;;;9.61;100.00
4972;BME280;2501;51.214;6.768;2023-02-19T03:47:55;101529.91;;;9.62;100.00
4972;BME280;2501;51.214;6.768;2023-02-19T03:50:35;101528.19;;;9.63;100.00
4972;BME280;2501;51.214;6.768;2023-02-19T03:53:12;101530.09;;;9.71;100.00
4972;BME280;2501;51.214;6.768;2023-02-19T03:55:45;101542.25;;;9.66;100.00
4972;BME280;2501;51.214;6.768;2023-02-19T03:58:24;101526.53;;;9.66;100.00
4972;BME280;2501;51.214;6.768;2023-02-19T04:00:58;101536.19;;;9.69;100.00
4972;BME280;2501;51.214;6.768;2023-02-19T04:03:33;101540.66;;;9.74;100.00
4972;BME280;2501;51.214;6.768;2023-02-19T04:06:11;101541.44;;;9.70;100.00
4972;BME280;2501;51.214;6.768;2023-02-19T04:08:46;101543.16;;;9.70;100.00
4972;BME280;2501;51.214;6.768;2023-02-19T04:11:15;101548.41;;;9.70;100.00
4972;BME280;2501;51.214;6.768;2023-02-19T04:13:48;101549.28;;;9.69;100.00
4972;BME280;2501;51.214;6.768;2023-02-19T04:16:20;101553.72;;;9.73;100.00
4972;BME280;2501;51.214;6.768;2023-02-19T04:18:52;101559.69;;;9.66;100.00
4972;BME280;2501;51.214;6.768;2023-02-19T04:21:25;101559.81;;;9.72;100.00
4972;BME280;2501;51.214;6.768;2023-02-19T04:23:58;101553.63;;;9.70;100.00
4972;BME280;2501;51.214;6.768;2023-02-19T04:26:29;101564.31;;;9.77;100.00
4972;BME280;2501;51.214;6.768;2023-02-19T04:28:59;101570.31;;;9.73;100.00
4972;BME280;2501;51.214;6.768;2023-02-19T04:31:29;101576.47;;;9.75;100.00
4972;BME280;2501;51.214;6.768;2023-02-19T04:33:59;101579.84;;;9.68;100.00
4972;BME280;2501;51.214;6.768;2023-02-19T04:36:31;101576.25;;;9.65;100.00
4972;BME280;2501;51.214;6.768;2023-02-19T04:38:59;101577.06;;;9.62;100.00
4972;BME280;2501;51.214;6.768;2023-02-19T04:41:28;101578.03;;;9.66;100.00
4972;BME280;2501;51.214;6.768;2023-02-19T04:43:56;101586.66;;;9.62;100.00
4972;BME280;2501;51.214;6.768;2023-02-19T04:46:25;101590.13;;;9.61;100.00
4972;BME280;2501;51.214;6.768;2023-02-19T04:48:53;101592.84;;;9.65;100.00
4972;BME280;2501;51.214;6.768;2023-02-19T04:51:22;101600.59;;;9.61;100.00
4972;BME280;2501;51.214;6.768;2023-02-19T04:53:53;101607.38;;;9.51;100.00
4972;BME280;2501;51.214;6.768;2023-02-19T04:56:22;101600.19;;;9.44;100.00
4972;BME280;2501;51.214;6.768;2023-02-19T04:58:51;101602.81;;;9.44;100.00
4972;BME280;2501;51.214;6.768;2023-02-19T05:01:19;101605.44;;;9.44;100.00
4972;BME280;2501;51.214;6.768;2023-02-19T05:03:47;101609.81;;;9.45;100.00
4972;BME280;2501;51.214;6.768;2023-02-19T05:06:16;101617.72;;;9.47;100.00
4972;BME280;2501;51.214;6.768;2023-02-19T05:08:45;101617.69;;;9.45;100.00
4972;BME280;2501;51.214;6.768;2023-02-19T05:11:16;101623.09;;;9.51;100.00
4972;BME280;2501;51.214;6.768;2023-02-19T05:13:44;101617.88;;;9.54;100.00
4972;BME280;2501;51.214;6.768;2023-02-19T05:16:13;101631.03;;;9.56;100.00
4972;BME280;2501;51.214;6.768;2023-02-19T05:18:44;101624.91;;;9.55;100.00
4972;BME280;2501;51.214;6.768;2023-02-19T05:21:13;101623.94;;;9.50;100.00
4972;BME280;2501;51.214;6.768;2023-02-19T05:23:42;101640.47;;;9.49;100.00
4972;BME280;2501;51.214;6.768;2023-02-19T05:26:12;101644.88;;;9.50;100.00
4972;BME280;2501;51.214;6.768;2023-02-19T05:28:45;101644.88;;;9.50;100.00
4972;BME280;2501;51.214;6.768;2023-02-19T05:31:14;101651.13;;;9.57;100.00
4972;BME280;2501;51.214;6.768;2023-02-19T05:33:43;101647.53;;;9.52;100.00
4972;BME280;2501;51.214;6.768;2023-02-19T05:36:16;101654.75;;;9.62;100.00
4972;BME280;2501;51.214;6.768;2023-02-19T05:38:45;101661.53;;;9.54;100.00
4972;BME280;2501;51.214;6.768;2023-02-19T05:41:15;101664.78;;;9.43;100.00
4972;BME280;2501;51.214;6.768;2023-02-19T05:43:47;101659.63;;;9.47;100.00
4972;BME280;2501;51.214;6.768;2023-02-19T05:46:18;101664.78;;;9.43;100.00
4972;BME280;2501;51.214;6.768;2023-02-19T05:48:47;101665.47;;;9.36;100.00
4972;BME280;2501;51.214;6.768;2023-02-19T05:51:18;101673.19;;;9.30;100.00
4972;BME280;2501;51.214;6.768;2023-02-19T05:53:47;101678.50;;;9.33;100.00
4972;BME280;2501;51.214;6.768;2023-02-19T05:56:32;101668.75;;;9.28;100.00
4972;BME280;2501;51.214;6.768;2023-02-19T05:59:05;101677.47;;;9.28;100.00
4972;BME280;2501;51.214;6.768;2023-02-19T06:01:34;101686.25;;;9.30;100.00
4972;BME280;2501;51.214;6.768;2023-02-19T06:04:03;101682.69;;;9.27;100.00
4972;BME280;2501;51.214;6.768;2023-02-19T06:06:32;101680.00;;;9.25;100.00
4972;BME280;2501;51.214;6.768;2023-02-19T06:09:01;101687.03;;;9.26;100.00
4972;BME280;2501;51.214;6.768;2023-02-19T06:11:30;101684.41;;;9.26;100.00
4972;BME280;2501;51.214;6.768;2023-02-19T06:13:59;101691.25;;;9.21;100.00
4972;BME280;2501;51.214;6.768;2023-02-19T06:16:30;101688.53;;;9.18;100.00
4972;BME280;2501;51.214;6.768;2023-02-19T06:19:00;101687.63;;;9.16;100.00
4972;BME280;2501;51.214;6.768;2023-02-19T06:21:29;101702.47;;;9.16;100.00
4972;BME280;2501;51.214;6.768;2023-02-19T06:23:58;101698.88;;;9.12;100.00
4972;BME280;2501;51.214;6.768;2023-02-19T06:26:31;101698.88;;;9.12;100.00
4972;BME280;2501;51.214;6.768;2023-02-19T06:28:59;101705.97;;;9.16;100.00
4972;BME280;2501;51.214;6.768;2023-02-19T06:31:30;101701.53;;;9.14;100.00
4972;BME280;2501;51.214;6.768;2023-02-19T06:34:02;101711.88;;;9.09;100.00
4972;BME280;2501;51.214;6.768;2023-02-19T06:36:31;101711.63;;;9.00;100.00
4972;BME280;2501;51.214;6.768;2023-02-19T06:38:59;101709.03;;;9.01;100.00
4972;BME280;2501;51.214;6.768;2023-02-19T06:41:28;101720.28;;;8.97;100.00
4972;BME280;2501;51.214;6.768;2023-02-19T06:43:56;101719.19;;;8.91;100.00
4972;BME280;2501;51.214;6.768;2023-02-19T06:46:25;101720.72;;;8.83;100.00
4972;BME280;2501;51.214;6.768;2023-02-19T06:48:56;101724.22;;;8.83;100.00
4972;BME280;2501;51.214;6.768;2023-02-19T06:51:25;101726.81;;;8.83;100.00
4972;BME280;2501;51.214;6.768;2023-02-19T06:53:54;101727.84;;;8.88;100.00
4972;BME280;2501;51.214;6.768;2023-02-19T06:56:24;101736.53;;;8.87;100.00
4972;BME280;2501;51.214;6.768;2023-02-19T06:58:55;101738.34;;;8.90;100.00
4972;BME280;2501;51.214;6.768;2023-02-19T07:01:25;101747.00;;;8.87;100.00
4972;BME280;2501;51.214;6.768;2023-02-19T07:03:56;101752.38;;;8.92;100.00
4972;BME280;2501;51.214;6.768;2023-02-19T07:06:25;101752.38;;;8.92;100.00
4972;BME280;2501;51.214;6.768;2023-02-19T07:08:55;101770.75;;;8.93;100.00
4972;BME280;2501;51.214;6.768;2023-02-19T07:11:25;101765.50;;;8.93;100.00
4972;BME280;2501;51.214;6.768;2023-02-19T07:13:54;101771.72;;;8.97;100.00
4972;BME280;2501;51.214;6.768;2023-02-19T07:16:23;101770.91;;;8.99;100.00
4972;BME280;2501;51.214;6.768;2023-02-19T07:18:54;101769.22;;;9.01;100.00
4972;BME280;2501;51.214;6.768;2023-02-19T07:21:26;101773.59;;;9.02;100.00
4972;BME280;2501;51.214;6.768;2023-02-19T07:23:55;101774.72;;;9.11;100.00
4972;BME280;2501;51.214;6.768;2023-02-19T07:26:23;101783.41;;;9.10;100.00
4972;BME280;2501;51.214;6.768;2023-02-19T07:28:51;101789.47;;;9.08;100.00
4972;BME280;2501;51.214;6.768;2023-02-19T07:31:21;101800.75;;;9.06;100.00
4972;BME280;2501;51.214;6.768;2023-02-19T07:33:50;101800.78;;;9.07;100.00
4972;BME280;2501;51.214;6.768;2023-02-19T07:36:20;101806.06;;;9.09;100.00
4972;BME280;2501;51.214;6.768;2023-02-19T07:38:54;101811.25;;;9.07;100.00
4972;BME280;2501;51.214;6.768;2023-02-19T07:41:23;101822.97;;;9.20;100.00
4972;BME280;2501;51.214;6.768;2023-02-19T07:43:53;101818.47;;;9.15;100.00
4972;BME280;2501;51.214;6.768;2023-02-19T07:46:22;101818.69;;;9.24;100.00
4972;BME280;2501;51.214;6.768;2023-02-19T07:48:50;101824.59;;;9.15;100.00
4972;BME280;2501;51.214;6.768;2023-02-19T07:51:22;101833.22;;;9.13;100.00
4972;BME280;2501;51.214;6.768;2023-02-19T07:53:50;101838.41;;;9.11;100.00
4972;BME280;2501;51.214;6.768;2023-02-19T07:56:23;101846.03;;;9.03;100.00
4972;BME280;2501;51.214;6.768;2023-02-19T07:58:53;101847.56;;;8.95;100.00
4972;BME280;2501;51.214;6.768;2023-02-19T08:01:22;101853.56;;;8.93;100.00
4972;BME280;2501;51.214;6.768;2023-02-19T08:04:12;101853.63;;;8.94;100.00
4972;BME280;2501;51.214;6.768;2023-02-19T08:06:38;101842.47;;;9.01;100.00
4972;BME280;2501;51.214;6.768;2023-02-19T08:09:07;101849.72;;;9.10;100.00
4972;BME280;2501;51.214;6.768;2023-02-19T08:11:38;101858.19;;;9.01;100.00
4972;BME280;2501;51.214;6.768;2023-02-19T08:14:19;101860.25;;;9.12;100.00
4972;BME280;2501;51.214;6.768;2023-02-19T08:16:48;101868.19;;;9.15;100.00
4972;BME280;2501;51.214;6.768;2023-02-19T08:19:17;101870.84;;;9.16;100.00
4972;BME280;2501;51.214;6.768;2023-02-19T08:21:46;101856.16;;;9.21;100.00
4972;BME280;2501;51.214;6.768;2023-02-19T08:24:15;101863.13;;;9.21;100.00
4972;BME280;2501;51.214;6.768;2023-02-19T08:26:46;101871.59;;;9.12;100.00
4972;BME280;2501;51.214;6.768;2023-02-19T08:29:14;101876.19;;;9.21;100.00
4972;BME280;2501;51.214;6.768;2023-02-19T08:31:43;101884.25;;;9.27;100.00
4972;BME280;2501;51.214;6.768;2023-02-19T08:34:11;101883.34;;;9.26;100.00
4972;BME280;2501;51.214;6.768;2023-02-19T08:36:39;101882.47;;;9.26;100.00
4972;BME280;2501;51.214;6.768;2023-02-19T08:39:08;101885.09;;;9.26;100.00
4972;BME280;2501;51.214;6.768;2023-02-19T08:41:37;101887.09;;;9.34;100.00
4972;BME280;2501;51.214;6.768;2023-02-19T08:44:08;101894.06;;;9.35;100.00
4972;BME280;2501;51.214;6.768;2023-02-19T08:46:36;101882.16;;;9.45;99.92
4972;BME280;2501;51.214;6.768;2023-02-19T08:49:05;101888.97;;;9.40;99.30
4972;BME280;2501;51.214;6.768;2023-02-19T08:51:33;101893.47;;;9.44;99.03
4972;BME280;2501;51.214;6.768;2023-02-19T08:54:02;101881.59;;;9.57;98.57
4972;BME280;2501;51.214;6.768;2023-02-19T08:56:31;101888.72;;;9.61;97.19
4972;BME280;2501;51.214;6.768;2023-02-19T08:58:59;101902.13;;;9.41;97.07
4972;BME280;2501;51.214;6.768;2023-02-19T09:01:30;101897.69;;;9.39;97.11
4972;BME280;2501;51.214;6.768;2023-02-19T09:03:58;101899.00;;;9.55;96.89
4972;BME280;2501;51.214;6.768;2023-02-19T09:06:27;101896.91;;;9.73;96.42
4972;BME280;2501;51.214;6.768;2023-02-19T09:08:55;101897.75;;;9.72;96.16
4972;BME280;2501;51.214;6.768;2023-02-19T09:11:24;101901.34;;;9.75;95.43
4972;BME280;2501;51.214;6.768;2023-02-19T09:13:55;101900.16;;;9.64;95.22
4972;BME280;2501;51.214;6.768;2023-02-19T09:16:23;101905.13;;;9.85;95.28
4972;BME280;2501;51.214;6.768;2023-02-19T09:18:54;101903.81;;;9.71;95.13
4972;BME280;2501;51.214;6.768;2023-02-19T09:21:23;101916.03;;;9.70;95.24
4972;BME280;2501;51.214;6.768;2023-02-19T09:23:52;101912.72;;;9.76;95.66
4972;BME280;2501;51.214;6.768;2023-02-19T09:26:21;101931.94;;;9.76;95.13
4972;BME280;2501;51.214;6.768;2023-02-19T09:28:49;101932.44;;;9.63;95.23
4972;BME280;2501;51.214;6.768;2023-02-19T09:31:18;101936.66;;;9.58;95.34
4972;BME280;2501;51.214;6.768;2023-02-19T09:33:47;101940.94;;;9.56;95.98
4972;BME280;2501;51.214;6.768;2023-02-19T09:36:18;101937.81;;;9.68;95.98
4972;BME280;2501;51.214;6.768;2023-02-19T09:38:47;101932.50;;;9.65;95.81
4972;BME280;2501;51.214;6.768;2023-02-19T09:41:21;101947.88;;;9.54;96.22
4972;BME280;2501;51.214;6.768;2023-02-19T09:43:51;101951.41;;;9.26;98.11
4972;BME280;2501;51.214;6.768;2023-02-19T09:46:27;101950.28;;;9.18;100.00
4972;BME280;2501;51.214;6.768;2023-02-19T09:49:02;101944.56;;;9.03;100.00
4972;BME280;2501;51.214;6.768;2023-02-19T09:51:35;101948.69;;;8.95;100.00
4972;BME280;2501;51.214;6.768;2023-02-19T09:54:08;101944.22;;;8.91;100.00
4972;BME280;2501;51.214;6.768;2023-02-19T09:56:40;101956.91;;;8.79;100.00
4972;BME280;2501;51.214;6.768;2023-02-19T09:59:18;101963.22;;;8.85;100.00
4972;BME280;2501;51.214;6.768;2023-02-19T10:01:48;101963.34;;;8.90;100.00
4972;BME280;2501;51.214;6.768;2023-02-19T10:04:19;101972.47;;;9.02;100.00
4972;BME280;2501;51.214;6.768;2023-02-19T10:06:50;101982.38;;;9.11;100.00
4972;BME280;2501;51.214;6.768;2023-02-19T10:09:24;101990.69;;;9.26;100.00
4972;BME280;2501;51.214;6.768;2023-02-19T10:11:55;101998.69;;;9.31;100.00
4972;BME280;2501;51.214;6.768;2023-02-19T10:14:29;102006.88;;;9.41;100.00
4972;BME280;2501;51.214;6.768;2023-02-19T10:17:02;102006.53;;;9.59;100.00
4972;BME280;2501;51.214;6.768;2023-02-19T10:19:32;102037.91;;;9.58;100.00
4972;BME280;2501;51.214;6.768;2023-02-19T10:22:04;102040.16;;;9.46;100.00
4972;BME280;2501;51.214;6.768;2023-02-19T10:24:36;102026.69;;;9.62;100.00
4972;BME280;2501;51.214;6.768;2023-02-19T10:27:08;102012.91;;;9.67;100.00
4972;BME280;2501;51.214;6.768;2023-02-19T10:29:37;102013.84;;;9.71;99.51
4972;BME280;2501;51.214;6.768;2023-02-19T10:32:14;102029.06;;;9.83;98.37
4972;BME280;2501;51.214;6.768;2023-02-19T10:34:46;102029.59;;;10.01;97.22
4972;BME280;2501;51.214;6.768;2023-02-19T10:37:17;102034.50;;;9.90;96.50
4972;BME280;2501;51.214;6.768;2023-02-19T10:39:48;102038.84;;;9.90;96.18
4972;BME280;2501;51.214;6.768;2023-02-19T10:42:19;102043.16;;;9.88;96.80
4972;BME280;2501;51.214;6.768;2023-02-19T10:44:51;102045.78;;;9.86;96.95
4972;BME280;2501;51.214;6.768;2023-02-19T10:47:25;102042.03;;;9.78;96.74
4972;BME280;2501;51.214;6.768;2023-02-19T10:49:56;102047.91;;;9.71;97.45
4972;BME280;2501;51.214;6.768;2023-02-19T10:52:29;102055.13;;;9.78;98.32
4972;BME280;2501;51.214;6.768;2023-02-19T10:55:13;102057.22;;;9.61;99.04
4972;BME280;2501;51.214;6.768;2023-02-19T10:57:42;102068.03;;;9.43;99.95
4972;BME280;2501;51.214;6.768;2023-02-19T11:00:20;102063.63;;;9.69;100.00
4972;BME280;2501;51.214;6.768;2023-02-19T11:03:12;102062.88;;;9.75;99.50
4972;BME280;2501;51.214;6.768;2023-02-19T11:05:49;102068.03;;;9.72;98.10
4972;BME280;2501;51.214;6.768;2023-02-19T11:08:23;102070.00;;;10.09;96.47
4972;BME280;2501;51.214;6.768;2023-02-19T11:10:52;102086.13;;;9.93;96.20
4972;BME280;2501;51.214;6.768;2023-02-19T11:13:25;102075.03;;;10.01;96.48
4972;BME280;2501;51.214;6.768;2023-02-19T11:15:57;102090.44;;;9.62;97.66
4972;BME280;2501;51.214;6.768;2023-02-19T11:18:27;102085.63;;;9.21;100.00
4972;BME280;2501;51.214;6.768;2023-02-19T11:20:59;102079.47;;;8.93;100.00
4972;BME280;2501;51.214;6.768;2023-02-19T11:23:33;102081.34;;;8.72;100.00
4972;BME280;2501;51.214;6.768;2023-02-19T11:26:05;102087.31;;;8.68;100.00
4972;BME280;2501;51.214;6.768;2023-02-19T11:28:35;102083.03;;;8.70;100.00
4972;BME280;2501;51.214;6.768;2023-02-19T11:31:21;102090.81;;;8.68;100.00
4972;BME280;2501;51.214;6.768;2023-02-19T11:33:53;102081.19;;;8.67;100.00
4972;BME280;2501;51.214;6.768;2023-02-19T11:36:29;102087.97;;;8.61;100.00
4972;BME280;2501;51.214;6.768;2023-02-19T11:39:18;102075.00;;;8.64;100.00
4972;BME280;2501;51.214;6.768;2023-02-19T11:42:14;102066.50;;;8.71;100.00
4972;BME280;2501;51.214;6.768;2023-02-19T11:44:59;102062.50;;;8.81;100.00
4972;BME280;2501;51.214;6.768;2023-02-19T11:48:12;102064.97;;;9.03;100.00
4972;BME280;2501;51.214;6.768;2023-02-19T11:50:57;102072.03;;;9.05;100.00
4972;BME280;2501;51.214;6.768;2023-02-19T11:53:31;102071.56;;;8.92;100.00
4972;BME280;2501;51.214;6.768;2023-02-19T11:56:17;102058.50;;;8.92;100.00
4972;BME280;2501;51.214;6.768;2023-02-19T11:58:59;102061.72;;;8.85;100.00
4972;BME280;2501;51.214;6.768;2023-02-19T12:01:53;102060.13;;;8.88;100.00
4972;BME280;2501;51.214;6.768;2023-02-19T12:04:46;102049.31;;;8.78;100.00
4972;BME280;2501;51.214;6.768;2023-02-19T12:07:34;102055.88;;;8.92;100.00
4972;BME280;2501;51.214;6.768;2023-02-19T12:10:12;102052.41;;;9.20;100.00
4972;BME280;2501;51.214;6.768;2023-02-19T12:12:56;102051.19;;;9.08;100.00
4972;BME280;2501;51.214;6.768;2023-02-19T12:15:38;102062.69;;;9.40;100.00
4972;BME280;2501;51.214;6.768;2023-02-19T12:21:13;102071.50;;;9.42;100.00
4972;BME280;2501;51.214;6.768;2023-02-19T12:23:55;102079.19;;;9.38;100.00
4972;BME280;2501;51.214;6.768;2023-02-19T12:26:29;102070.13;;;9.27;100.00
4972;BME280;2501;51.214;6.768;2023-02-19T12:32:21;102077.81;;;9.77;100.00
4972;BME280;2501;51.214;6.768;2023-02-19T12:35:20;102082.34;;;9.55;100.00
4972;BME280;2501;51.214;6.768;2023-02-19T12:37:59;102085.25;;;9.37;100.00
4972;BME280;2501;51.214;6.768;2023-02-19T12:40:46;102087.91;;;9.94;100.00
4972;BME280;2501;51.214;6.768;2023-02-19T12:43:18;102082.81;;;9.98;100.00
4972;BME280;2501;51.214;6.768;2023-02-19T12:45:53;102075.09;;;10.03;99.22
4972;BME280;2501;51.214;6.768;2023-02-19T12:48:29;102080.50;;;10.09;98.38
4972;BME280;2501;51.214;6.768;2023-02-19T12:51:03;102078.28;;;10.23;98.02
4972;BME280;2501;51.214;6.768;2023-02-19T12:53:39;102081.75;;;10.22;97.42
4972;BME280;2501;51.214;6.768;2023-02-19T12:56:13;102073.81;;;10.19;96.95
4972;BME280;2501;51.214;6.768;2023-02-19T12:58:47;102084.88;;;10.10;97.00
4972;BME280;2501;51.214;6.768;2023-02-19T13:01:22;102084.06;;;10.11;97.31
4972;BME280;2501;51.214;6.768;2023-02-19T13:04:06;102078.59;;;10.03;98.15
4972;BME280;2501;51.214;6.768;2023-02-19T13:06:43;102087.56;;;9.82;99.12
4972;BME280;2501;51.214;6.768;2023-02-19T13:09:16;102081.88;;;9.96;98.87
4972;BME280;2501;51.214;6.768;2023-02-19T13:11:49;102082.56;;;9.91;98.27
4972;BME280;2501;51.214;6.768;2023-02-19T13:14:24;102086.66;;;9.81;98.32
4972;BME280;2501;51.214;6.768;2023-02-19T13:17:00;102088.41;;;9.81;98.69
4972;BME280;2501;51.214;6.768;2023-02-19T13:19:33;102087.66;;;9.85;99.24
4972;BME280;2501;51.214;6.768;2023-02-19T13:22:10;102094.63;;;9.84;99.07
4972;BME280;2501;51.214;6.768;2023-02-19T13:24:56;102092.69;;;9.78;99.02
4972;BME280;2501;51.214;6.768;2023-02-19T13:27:39;102089.34;;;9.83;98.99
4972;BME280;2501;51.214;6.768;2023-02-19T13:30:30;102085.72;;;9.79;99.02
4972;BME280;2501;51.214;6.768;2023-02-19T13:33:15;102096.06;;;9.74;99.63
4972;BME280;2501;51.214;6.768;2023-02-19T13:36:02;102096.31;;;9.82;100.00
4972;BME280;2501;51.214;6.768;2023-02-19T13:38:36;102100.94;;;9.62;100.00
4972;BME280;2501;51.214;6.768;2023-02-19T13:41:16;102097.34;;;9.89;100.00
4972;BME280;2501;51.214;6.768;2023-02-19T13:43:53;102104.72;;;10.00;99.09
4972;BME280;2501;51.214;6.768;2023-02-19T13:46:23;102101.91;;;9.94;98.08
4972;BME280;2501;51.214;6.768;2023-02-19T13:52:42;102103.47;;;10.48;93.03
4972;BME280;2501;51.214;6.768;2023-02-19T13:58:50;102104.22;;;10.43;87.87
4972;BME280;2501;51.214;6.768;2023-02-19T14:04:21;102116.34;;;10.38;86.08